LIMCLIRN

Guest
Details From LIMC - Milano Malpensa
To LIRN - Naples Capodichino
Flight Number -
Tags Generated
Created
Modified
Stats Distance 375 nm / 695 km
Max Altitude 0 ft / 0 m
Waypoints 3
Social Downloads 1
Likes 0
Share VATSIM

Download

Looking for another format? Having issues loading an existing format? Contact us
Advertisement - Login to hide

Notes

Generated

Route

LIMC GRA LIRN

ID Type Via Altitude Latitude Longitude Leg Dist Tot Dist Heading (true) Name
O LIMC APT - 0 ft / 0 m 45.65044˚ 8.72841˚ - 0 nm - -
GRA NDB - 0 ft / 0 m 41.05720˚ 14.08348˚ 361 nm 361 nm 138° / 142° -
O LIRN APT - 0 ft / 0 m 40.87979˚ 14.27754˚ 13 nm 375 nm 140° / 141° -

Altitude Profile

Advertisement - Login to hide

Weather


0- 5 10 15 20 25 30 35+ Temperature / ° C

Clouds and Precipitation
Forecast for 2017-12-16 06:00 UTC. Updated 2 hours ago

Ground ~20,000 ft ~40,000 ft Winds

LIMC

Details ICAO LIMC (MXP)
Name Milano Malpensa
Region Italy
Timezone Europe/Rome (UTC+1.0)
Stats Elevation 767 ft / 234 m (AMSL)
Location 45.630606° 8.728111°
Runways 2
Magnetic Variation 2.377° E

METAR

LIMC 160220Z 36008KT CAVOK M01/M05 Q0999 NOSIG

Decode

TAF

TAF LIMC 152300Z 1600/1706 VRB05KT 8000 NSC TEMPO 1604/1607 1200 BCFG

Decode

Departure Runways

ID Width Length Bearing (true) Bearing (mag) Surface Threshold Offset Overrun Length
17L 197 ft / 60 m 12,869 ft / 3,923 m 169.62° 167.24° Asphalt 3,094 ft / 943 m 0 ft / 0 m
17R 197 ft / 60 m 12,869 ft / 3,923 m 169.62° 167.24° Asphalt 0 ft / 0 m 0 ft / 0 m
35L 197 ft / 60 m 12,869 ft / 3,923 m 349.62° 347.24° Asphalt 1,329 ft / 405 m 0 ft / 0 m
35R 197 ft / 60 m 12,869 ft / 3,923 m 349.62° 347.24° Asphalt 0 ft / 0 m 0 ft / 0 m

LIRN

Details ICAO LIRN (NAP)
Name Naples Capodichino
Region Italy
Timezone Europe/Rome (UTC+1.0)
Stats Elevation 294 ft / 90 m (AMSL)
Location 40.886032° 14.290783°
Runways 1
Magnetic Variation 3.308° E

METAR

LIRN 160220Z 25006KT 6000 -RA SCT020 BKN030 11/06 Q1005 NOSIG

Decode

TAF

TAF LIRN 152300Z 1600/1624 28014KT 9999 SCT030 BKN050 TEMPO 1600/1603 4000 RA TEMPO 1612/1624 4000 SHRA

Decode

Destination Runways

ID Width Length Bearing (true) Bearing (mag) Surface Threshold Offset Overrun Length
06 148 ft / 45 m 8,612 ft / 2,625 m 58.03° 54.72° Asphalt 1,309 ft / 399 m 0 ft / 0 m
24 148 ft / 45 m 8,612 ft / 2,625 m 238.05° 234.74° Asphalt 624 ft / 190 m 0 ft / 0 m

Approach Navaids

Runway Type Ident Frequency Range Bearing (true) Bearing (mag) Slope Elevation
06 Localiser NPC 110.15 MHz 18 nm / 33 km 52.74° 49.43° - 294 ft / 90 m (AMSL)
06 Glidescope NPC 110.15 MHz 10 nm / 19 km 58.04° 54.73° 3.50° 294 ft / 90 m (AMSL)
06 DME NPC 110.15 MHz 25 nm / 46 km - - - 294 ft / 90 m (AMSL)
24 Localiser INPL 109.50 MHz 18 nm / 33 km 238.03° 234.72° - 288 ft / 88 m (AMSL)
24 Glidescope INPL 109.50 MHz 10 nm / 19 km 238.04° 234.73° 3.33° 250 ft / 76 m (AMSL)
24 DME INPL 109.50 MHz 25 nm / 46 km - - - 250 ft / 76 m (AMSL)

Popular Alternatives